sensor_id;sensor_type;location;lat;lon;timestamp;P1;P2;P0
57049;PMS7003;42935;50.966;16.992;2023-04-24T00:00:47;52;40;26
57049;PMS7003;42935;50.966;16.992;2023-04-24T00:04:13;49;38;25
57049;PMS7003;42935;50.966;16.992;2023-04-24T00:07:43;47;37;25
57049;PMS7003;42935;50.966;16.992;2023-04-24T00:11:08;45;37;23
57049;PMS7003;42935;50.966;16.992;2023-04-24T00:14:32;45;37;24
57049;PMS7003;42935;50.966;16.992;2023-04-24T00:17:57;48;37;24
57049;PMS7003;42935;50.966;16.992;2023-04-24T00:21:21;46;35;22
57049;PMS7003;42935;50.966;16.992;2023-04-24T00:24:48;45;35;24
57049;PMS7003;42935;50.966;16.992;2023-04-24T00:28:08;47;35;22
57049;PMS7003;42935;50.966;16.992;2023-04-24T00:31:32;37;31;23
57049;PMS7003;42935;50.966;16.992;2023-04-24T00:34:59;45;35;23
57049;PMS7003;42935;50.966;16.992;2023-04-24T00:38:24;44;35;21
57049;PMS7003;42935;50.966;16.992;2023-04-24T00:41:44;40;32;21
57049;PMS7003;42935;50.966;16.992;2023-04-24T00:45:10;42;32;23
57049;PMS7003;42935;50.966;16.992;2023-04-24T00:48:28;40;33;21
57049;PMS7003;42935;50.966;16.992;2023-04-24T00:51:53;42;33;21
57049;PMS7003;42935;50.966;16.992;2023-04-24T00:55:14;44;33;22
57049;PMS7003;42935;50.966;16.992;2023-04-24T00:58:41;43;35;22
57049;PMS7003;42935;50.966;16.992;2023-04-24T01:02:01;41;34;22
57049;PMS7003;42935;50.966;16.992;2023-04-24T01:05:21;42;35;23
57049;PMS7003;42935;50.966;16.992;2023-04-24T01:08:41;42;32;23
57049;PMS7003;42935;50.966;16.992;2023-04-24T01:12:07;36;30;20
57049;PMS7003;42935;50.966;16.992;2023-04-24T01:15:31;39;30;21
57049;PMS7003;42935;50.966;16.992;2023-04-24T01:18:49;32;28;19
57049;PMS7003;42935;50.966;16.992;2023-04-24T01:22:13;38;29;19
57049;PMS7003;42935;50.966;16.992;2023-04-24T01:25:35;40;31;21
57049;PMS7003;42935;50.966;16.992;2023-04-24T01:28:59;37;31;21
57049;PMS7003;42935;50.966;16.992;2023-04-24T01:32:20;37;32;20
57049;PMS7003;42935;50.966;16.992;2023-04-24T01:35:41;37;31;20
57049;PMS7003;42935;50.966;16.992;2023-04-24T01:39:06;36;30;20
57049;PMS7003;42935;50.966;16.992;2023-04-24T01:42:26;37;29;21
57049;PMS7003;42935;50.966;16.992;2023-04-24T01:45:43;29;27;19
57049;PMS7003;42935;50.966;16.992;2023-04-24T01:49:07;36;29;19
57049;PMS7003;42935;50.966;16.992;2023-04-24T01:52:25;31;28;19
57049;PMS7003;42935;50.966;16.992;2023-04-24T01:55:53;33;27;18
57049;PMS7003;42935;50.966;16.992;2023-04-24T01:59:16;30;27;19
57049;PMS7003;42935;50.966;16.992;2023-04-24T02:02:39;31;25;16
57049;PMS7003;42935;50.966;16.992;2023-04-24T02:06:04;30;28;20
57049;PMS7003;42935;50.966;16.992;2023-04-24T02:09:26;34;28;19
57049;PMS7003;42935;50.966;16.992;2023-04-24T02:12:48;31;29;19
57049;PMS7003;42935;50.966;16.992;2023-04-24T02:16:10;34;29;20
57049;PMS7003;42935;50.966;16.992;2023-04-24T02:19:40;35;29;19
57049;PMS7003;42935;50.966;16.992;2023-04-24T02:23:02;38;27;19
57049;PMS7003;42935;50.966;16.992;2023-04-24T02:26:32;35;30;20
57049;PMS7003;42935;50.966;16.992;2023-04-24T02:29:52;32;29;19
57049;PMS7003;42935;50.966;16.992;2023-04-24T02:33:22;34;29;19
57049;PMS7003;42935;50.966;16.992;2023-04-24T02:36:47;31;27;19
57049;PMS7003;42935;50.966;16.992;2023-04-24T02:40:08;32;28;20
57049;PMS7003;42935;50.966;16.992;2023-04-24T02:43:27;30;27;19
57049;PMS7003;42935;50.966;16.992;2023-04-24T02:46:48;31;28;19
57049;PMS7003;42935;50.966;16.992;2023-04-24T02:50:13;34;28;19
57049;PMS7003;42935;50.966;16.992;2023-04-24T02:53:40;34;28;19
57049;PMS7003;42935;50.966;16.992;2023-04-24T02:56:58;30;27;19
57049;PMS7003;42935;50.966;16.992;2023-04-24T03:00:17;30;27;18
57049;PMS7003;42935;50.966;16.992;2023-04-24T03:03:37;29;27;18
57049;PMS7003;42935;50.966;16.992;2023-04-24T03:07:03;32;28;19
57049;PMS7003;42935;50.966;16.992;2023-04-24T03:10:22;31;26;19
57049;PMS7003;42935;50.966;16.992;2023-04-24T03:13:43;32;26;18
57049;PMS7003;42935;50.966;16.992;2023-04-24T03:16:59;34;30;21
57049;PMS7003;42935;50.966;16.992;2023-04-24T03:20:21;32;28;19
57049;PMS7003;42935;50.966;16.992;2023-04-24T03:23:42;30;23;17
57049;PMS7003;42935;50.966;16.992;2023-04-24T03:27:07;33;27;19
57049;PMS7003;42935;50.966;16.992;2023-04-24T03:30:27;32;29;19
57049;PMS7003;42935;50.966;16.992;2023-04-24T03:33:49;33;29;19
57049;PMS7003;42935;50.966;16.992;2023-04-24T03:37:07;35;30;20
57049;PMS7003;42935;50.966;16.992;2023-04-24T03:40:28;37;28;19
57049;PMS7003;42935;50.966;16.992;2023-04-24T03:43:46;29;26;19
57049;PMS7003;42935;50.966;16.992;2023-04-24T03:47:11;33;29;19
57049;PMS7003;42935;50.966;16.992;2023-04-24T03:50:32;33;27;19
57049;PMS7003;42935;50.966;16.992;2023-04-24T03:53:56;34;28;19
57049;PMS7003;42935;50.966;16.992;2023-04-24T03:57:20;32;27;18
57049;PMS7003;42935;50.966;16.992;2023-04-24T04:00:48;38;30;20
57049;PMS7003;42935;50.966;16.992;2023-04-24T04:04:42;36;30;20
57049;PMS7003;42935;50.966;16.992;2023-04-24T04:08:01;37;31;20
57049;PMS7003;42935;50.966;16.992;2023-04-24T04:11:25;43;36;24
57049;PMS7003;42935;50.966;16.992;2023-04-24T04:14:53;43;32;20
57049;PMS7003;42935;50.966;16.992;2023-04-24T04:18:08;36;29;18
57049;PMS7003;42935;50.966;16.992;2023-04-24T04:21:26;33;29;19
57049;PMS7003;42935;50.966;16.992;2023-04-24T04:24:44;36;30;20
57049;PMS7003;42935;50.966;16.992;2023-04-24T04:28:08;35;29;19
57049;PMS7003;42935;50.966;16.992;2023-04-24T04:31:28;35;30;19
57049;PMS7003;42935;50.966;16.992;2023-04-24T04:34:48;34;29;20
57049;PMS7003;42935;50.966;16.992;2023-04-24T04:38:42;36;30;20
57049;PMS7003;42935;50.966;16.992;2023-04-24T04:42:00;32;28;20
57049;PMS7003;42935;50.966;16.992;2023-04-24T04:45:20;31;27;19
57049;PMS7003;42935;50.966;16.992;2023-04-24T04:48:46;34;29;19
57049;PMS7003;42935;50.966;16.992;2023-04-24T04:52:06;33;26;18
57049;PMS7003;42935;50.966;16.992;2023-04-24T04:55:30;31;27;19
57049;PMS7003;42935;50.966;16.992;2023-04-24T04:58:54;34;28;20
57049;PMS7003;42935;50.966;16.992;2023-04-24T05:02:18;29;25;19
57049;PMS7003;42935;50.966;16.992;2023-04-24T05:05:42;31;27;18
57049;PMS7003;42935;50.966;16.992;2023-04-24T05:09:06;28;25;18
57049;PMS7003;42935;50.966;16.992;2023-04-24T05:12:28;26;22;16
57049;PMS7003;42935;50.966;16.992;2023-04-24T05:15:54;30;25;17
57049;PMS7003;42935;50.966;16.992;2023-04-24T05:19:16;25;22;17
57049;PMS7003;42935;50.966;16.992;2023-04-24T05:22:35;23;22;16
57049;PMS7003;42935;50.966;16.992;2023-04-24T05:25:57;24;22;16
57049;PMS7003;42935;50.966;16.992;2023-04-24T05:29:19;24;21;17
57049;PMS7003;42935;50.966;16.992;2023-04-24T05:32:39;24;22;15
57049;PMS7003;42935;50.966;16.992;2023-04-24T05:35:57;21;20;14
57049;PMS7003;42935;50.966;16.992;2023-04-24T05:39:18;25;20;14
57049;PMS7003;42935;50.966;16.992;2023-04-24T05:43:07;22;20;15
57049;PMS7003;42935;50.966;16.992;2023-04-24T05:46:22;21;18;14
57049;PMS7003;42935;50.966;16.992;2023-04-24T05:49:38;25;23;16
57049;PMS7003;42935;50.966;16.992;2023-04-24T05:52:58;26;20;15
57049;PMS7003;42935;50.966;16.992;2023-04-24T05:56:23;23;20;14
57049;PMS7003;42935;50.966;16.992;2023-04-24T05:59:48;23;21;15
57049;PMS7003;42935;50.966;16.992;2023-04-24T06:03:13;24;21;16
57049;PMS7003;42935;50.966;16.992;2023-04-24T06:06:34;24;21;15
57049;PMS7003;42935;50.966;16.992;2023-04-24T06:09:54;24;23;15
57049;PMS7003;42935;50.966;16.992;2023-04-24T06:13:17;23;21;15
57049;PMS7003;42935;50.966;16.992;2023-04-24T06:16:42;24;20;15
57049;PMS7003;42935;50.966;16.992;2023-04-24T06:20:03;22;21;16
57049;PMS7003;42935;50.966;16.992;2023-04-24T06:23:25;24;22;16
57049;PMS7003;42935;50.966;16.992;2023-04-24T06:26:45;24;19;14
57049;PMS7003;42935;50.966;16.992;2023-04-24T06:30:03;21;19;15
57049;PMS7003;42935;50.966;16.992;2023-04-24T06:33:24;24;20;16
57049;PMS7003;42935;50.966;16.992;2023-04-24T06:36:42;25;22;17
57049;PMS7003;42935;50.966;16.992;2023-04-24T06:40:29;23;20;14
57049;PMS7003;42935;50.966;16.992;2023-04-24T06:43:48;21;20;14
57049;PMS7003;42935;50.966;16.992;2023-04-24T06:47:05;25;20;14
57049;PMS7003;42935;50.966;16.992;2023-04-24T06:50:26;21;20;15
57049;PMS7003;42935;50.966;16.992;2023-04-24T06:53:51;20;18;13
57049;PMS7003;42935;50.966;16.992;2023-04-24T06:57:12;21;19;15
57049;PMS7003;42935;50.966;16.992;2023-04-24T07:00:37;24;22;15
57049;PMS7003;42935;50.966;16.992;2023-04-24T07:03:57;22;19;15
57049;PMS7003;42935;50.966;16.992;2023-04-24T07:07:23;23;19;14
57049;PMS7003;42935;50.966;16.992;2023-04-24T07:10:44;20;18;14
57049;PMS7003;42935;50.966;16.992;2023-04-24T07:14:02;21;20;14
57049;PMS7003;42935;50.966;16.992;2023-04-24T07:17:23;19;19;14
57049;PMS7003;42935;50.966;16.992;2023-04-24T07:20:39;20;19;14
57049;PMS7003;42935;50.966;16.992;2023-04-24T07:23:58;20;19;14
57049;PMS7003;42935;50.966;16.992;2023-04-24T07:27:14;18;17;14
57049;PMS7003;42935;50.966;16.992;2023-04-24T07:30:35;17;17;13
57049;PMS7003;42935;50.966;16.992;2023-04-24T07:33:51;19;18;14
57049;PMS7003;42935;50.966;16.992;2023-04-24T07:37:09;21;19;14
57049;PMS7003;42935;50.966;16.992;2023-04-24T07:40:27;18;15;11
57049;PMS7003;42935;50.966;16.992;2023-04-24T07:43:45;20;18;13
57049;PMS7003;42935;50.966;16.992;2023-04-24T07:47:09;21;19;14
57049;PMS7003;42935;50.966;16.992;2023-04-24T07:50:29;21;18;13
57049;PMS7003;42935;50.966;16.992;2023-04-24T07:53:54;22;19;14
57049;PMS7003;42935;50.966;16.992;2023-04-24T07:57:18;21;20;15
57049;PMS7003;42935;50.966;16.992;2023-04-24T08:00:41;24;22;17
57049;PMS7003;42935;50.966;16.992;2023-04-24T08:03:57;21;19;14
57049;PMS7003;42935;50.966;16.992;2023-04-24T08:07:23;18;17;13
57049;PMS7003;42935;50.966;16.992;2023-04-24T08:10:43;19;18;14
57049;PMS7003;42935;50.966;16.992;2023-04-24T08:14:06;21;18;14
57049;PMS7003;42935;50.966;16.992;2023-04-24T08:17:26;20;17;14
57049;PMS7003;42935;50.966;16.992;2023-04-24T08:20:44;20;17;14
57049;PMS7003;42935;50.966;16.992;2023-04-24T08:24:00;23;18;13
57049;PMS7003;42935;50.966;16.992;2023-04-24T08:27:56;20;19;15
57049;PMS7003;42935;50.966;16.992;2023-04-24T08:31:16;21;19;15
57049;PMS7003;42935;50.966;16.992;2023-04-24T08:34:37;22;21;15
57049;PMS7003;42935;50.966;16.992;2023-04-24T08:38:01;21;20;14
57049;PMS7003;42935;50.966;16.992;2023-04-24T08:41:17;25;21;16
57049;PMS7003;42935;50.966;16.992;2023-04-24T08:44:43;20;18;14
57049;PMS7003;42935;50.966;16.992;2023-04-24T08:48:07;19;16;12
57049;PMS7003;42935;50.966;16.992;2023-04-24T08:51:28;18;15;11
57049;PMS7003;42935;50.966;16.992;2023-04-24T08:54:50;13;13;10
57049;PMS7003;42935;50.966;16.992;2023-04-24T08:58:08;20;16;13
57049;PMS7003;42935;50.966;16.992;2023-04-24T09:01:29;15;13;10
57049;PMS7003;42935;50.966;16.992;2023-04-24T09:04:52;18;16;11
57049;PMS7003;42935;50.966;16.992;2023-04-24T09:08:19;18;16;11
57049;PMS7003;42935;50.966;16.992;2023-04-24T09:12:12;18;16;11
57049;PMS7003;42935;50.966;16.992;2023-04-24T09:15:39;20;16;10
57049;PMS7003;42935;50.966;16.992;2023-04-24T09:18:56;13;13;9
57049;PMS7003;42935;50.966;16.992;2023-04-24T09:22:16;19;17;11
57049;PMS7003;42935;50.966;16.992;2023-04-24T09:25:41;18;17;13
57049;PMS7003;42935;50.966;16.992;2023-04-24T09:29:01;19;17;12
57049;PMS7003;42935;50.966;16.992;2023-04-24T09:32:23;19;16;13
57049;PMS7003;42935;50.966;16.992;2023-04-24T09:35:48;21;16;11
57049;PMS7003;42935;50.966;16.992;2023-04-24T09:39:10;15;14;11
57049;PMS7003;42935;50.966;16.992;2023-04-24T09:42:35;18;16;12
57049;PMS7003;42935;50.966;16.992;2023-04-24T09:45:55;21;18;13
57049;PMS7003;42935;50.966;16.992;2023-04-24T09:49:22;22;19;13
57049;PMS7003;42935;50.966;16.992;2023-04-24T09:52:44;19;16;12
57049;PMS7003;42935;50.966;16.992;2023-04-24T09:56:44;20;18;13
57049;PMS7003;42935;50.966;16.992;2023-04-24T10:00:15;20;19;14
57049;PMS7003;42935;50.966;16.992;2023-04-24T10:03:45;20;19;14
57049;PMS7003;42935;50.966;16.992;2023-04-24T10:07:09;22;19;14
57049;PMS7003;42935;50.966;16.992;2023-04-24T10:10:34;23;19;13
57049;PMS7003;42935;50.966;16.992;2023-04-24T10:14:27;21;19;15
57049;PMS7003;42935;50.966;16.992;2023-04-24T10:17:53;25;22;16
57049;PMS7003;42935;50.966;16.992;2023-04-24T10:21:18;23;21;15
57049;PMS7003;42935;50.966;16.992;2023-04-24T10:24:44;27;22;16
57049;PMS7003;42935;50.966;16.992;2023-04-24T10:28:38;23;21;16
57049;PMS7003;42935;50.966;16.992;2023-04-24T10:31:57;24;21;14
57049;PMS7003;42935;50.966;16.992;2023-04-24T10:35:22;25;22;17
57049;PMS7003;42935;50.966;16.992;2023-04-24T10:38:41;23;22;17
57049;PMS7003;42935;50.966;16.992;2023-04-24T10:42:14;22;21;15
57049;PMS7003;42935;50.966;16.992;2023-04-24T10:45:39;25;24;16
57049;PMS7003;42935;50.966;16.992;2023-04-24T10:48:57;24;21;16
57049;PMS7003;42935;50.966;16.992;2023-04-24T10:52:20;25;22;15
57049;PMS7003;42935;50.966;16.992;2023-04-24T10:55:42;22;22;15
57049;PMS7003;42935;50.966;16.992;2023-04-24T10:59:09;20;19;14
57049;PMS7003;42935;50.966;16.992;2023-04-24T11:06:03;22;20;15
57049;PMS7003;42935;50.966;16.992;2023-04-24T11:09:31;24;22;16
57049;PMS7003;42935;50.966;16.992;2023-04-24T11:12:58;25;20;15
57049;PMS7003;42935;50.966;16.992;2023-04-24T11:19:49;26;22;16
57049;PMS7003;42935;50.966;16.992;2023-04-24T11:23:11;22;22;15
57049;PMS7003;42935;50.966;16.992;2023-04-24T11:26:31;23;21;16
57049;PMS7003;42935;50.966;16.992;2023-04-24T11:30:00;25;23;16
57049;PMS7003;42935;50.966;16.992;2023-04-24T11:33:24;22;21;15
57049;PMS7003;42935;50.966;16.992;2023-04-24T11:36:43;24;23;17
57049;PMS7003;42935;50.966;16.992;2023-04-24T11:40:06;25;22;16
57049;PMS7003;42935;50.966;16.992;2023-04-24T11:43:28;27;23;17
57049;PMS7003;42935;50.966;16.992;2023-04-24T11:46:49;30;25;18
57049;PMS7003;42935;50.966;16.992;2023-04-24T11:50:21;25;23;16
57049;PMS7003;42935;50.966;16.992;2023-04-24T11:53:45;23;23;17
57049;PMS7003;42935;50.966;16.992;2023-04-24T11:57:05;29;24;17
57049;PMS7003;42935;50.966;16.992;2023-04-24T12:00:29;25;23;17
57049;PMS7003;42935;50.966;16.992;2023-04-24T12:04:03;30;28;18
57049;PMS7003;42935;50.966;16.992;2023-04-24T12:07:23;27;24;17
57049;PMS7003;42935;50.966;16.992;2023-04-24T12:10:47;28;27;19
57049;PMS7003;42935;50.966;16.992;2023-04-24T12:14:17;28;24;18
57049;PMS7003;42935;50.966;16.992;2023-04-24T12:17:35;30;24;18
57049;PMS7003;42935;50.966;16.992;2023-04-24T12:24:31;26;23;17
57049;PMS7003;42935;50.966;16.992;2023-04-24T12:27:53;28;26;18
57049;PMS7003;42935;50.966;16.992;2023-04-24T12:31:10;30;27;19
57049;PMS7003;42935;50.966;16.992;2023-04-24T12:34:34;33;28;20
57049;PMS7003;42935;50.966;16.992;2023-04-24T12:37:52;30;27;20
57049;PMS7003;42935;50.966;16.992;2023-04-24T12:41:19;29;25;18
57049;PMS7003;42935;50.966;16.992;2023-04-24T12:44:37;31;26;18
57049;PMS7003;42935;50.966;16.992;2023-04-24T12:48:05;29;26;19
57049;PMS7003;42935;50.966;16.992;2023-04-24T12:51:23;33;27;19
57049;PMS7003;42935;50.966;16.992;2023-04-24T12:54:47;29;28;21
57049;PMS7003;42935;50.966;16.992;2023-04-24T12:58:12;28;27;19
57049;PMS7003;42935;50.966;16.992;2023-04-24T13:01:29;28;24;18
57049;PMS7003;42935;50.966;16.992;2023-04-24T13:04:54;31;28;19
57049;PMS7003;42935;50.966;16.992;2023-04-24T13:08:14;28;27;20
57049;PMS7003;42935;50.966;16.992;2023-04-24T13:11:34;29;28;20
57049;PMS7003;42935;50.966;16.992;2023-04-24T13:14:53;12;8;6
57049;PMS7003;42935;50.966;16.992;2023-04-24T13:18:14;6;6;5
57049;PMS7003;42935;50.966;16.992;2023-04-24T13:21:32;3;3;2
57049;PMS7003;42935;50.966;16.992;2023-04-24T13:24:48;2;2;2
57049;PMS7003;42935;50.966;16.992;2023-04-24T13:28:39;2;1;1
57049;PMS7003;42935;50.966;16.992;2023-04-24T13:31:59;2;2;2
57049;PMS7003;42935;50.966;16.992;2023-04-24T13:35:21;2;2;2
57049;PMS7003;42935;50.966;16.992;2023-04-24T13:38:37;2;2;1
57049;PMS7003;42935;50.966;16.992;2023-04-24T13:41:53;4;2;2
57049;PMS7003;42935;50.966;16.992;2023-04-24T13:45:10;3;2;2
57049;PMS7003;42935;50.966;16.992;2023-04-24T13:48:31;5;2;2
57049;PMS7003;42935;50.966;16.992;2023-04-24T13:51:54;3;3;2
57049;PMS7003;42935;50.966;16.992;2023-04-24T13:55:16;4;3;3
57049;PMS7003;42935;50.966;16.992;2023-04-24T13:58:35;5;5;4
57049;PMS7003;42935;50.966;16.992;2023-04-24T14:01:58;10;6;5
57049;PMS7003;42935;50.966;16.992;2023-04-24T14:05:19;7;7;5
57049;PMS7003;42935;50.966;16.992;2023-04-24T14:08:36;7;5;4
57049;PMS7003;42935;50.966;16.992;2023-04-24T14:11:53;8;5;4
57049;PMS7003;42935;50.966;16.992;2023-04-24T14:15:15;6;4;3
57049;PMS7003;42935;50.966;16.992;2023-04-24T14:19:06;5;4;3
57049;PMS7003;42935;50.966;16.992;2023-04-24T14:22:25;5;5;4
57049;PMS7003;42935;50.966;16.992;2023-04-24T14:25:45;12;11;9
57049;PMS7003;42935;50.966;16.992;2023-04-24T14:29:05;9;8;6
57049;PMS7003;42935;50.966;16.992;2023-04-24T14:32:28;11;9;7
57049;PMS7003;42935;50.966;16.992;2023-04-24T14:35:49;11;10;8
57049;PMS7003;42935;50.966;16.992;2023-04-24T14:39:05;10;9;7
57049;PMS7003;42935;50.966;16.992;2023-04-24T14:42:21;8;7;5
57049;PMS7003;42935;50.966;16.992;2023-04-24T14:45:38;12;10;7
57049;PMS7003;42935;50.966;16.992;2023-04-24T14:48:59;11;10;8
57049;PMS7003;42935;50.966;16.992;2023-04-24T14:52:21;11;10;7
57049;PMS7003;42935;50.966;16.992;2023-04-24T14:55:42;12;9;7
57049;PMS7003;42935;50.966;16.992;2023-04-24T14:59:02;10;7;6
57049;PMS7003;42935;50.966;16.992;2023-04-24T15:02:22;10;9;7
57049;PMS7003;42935;50.966;16.992;2023-04-24T15:05:43;11;8;6
57049;PMS7003;42935;50.966;16.992;2023-04-24T15:09:01;15;10;8
57049;PMS7003;42935;50.966;16.992;2023-04-24T15:12:23;13;11;7
57049;PMS7003;42935;50.966;16.992;2023-04-24T15:15:40;9;8;5
57049;PMS7003;42935;50.966;16.992;2023-04-24T15:18:56;7;7;5
57049;PMS7003;42935;50.966;16.992;2023-04-24T15:22:17;7;7;5
57049;PMS7003;42935;50.966;16.992;2023-04-24T15:25:33;9;7;6
57049;PMS7003;42935;50.966;16.992;2023-04-24T15:28:54;6;6;5
57049;PMS7003;42935;50.966;16.992;2023-04-24T15:32:17;8;7;5
57049;PMS7003;42935;50.966;16.992;2023-04-24T15:36:05;7;7;5
57049;PMS7003;42935;50.966;16.992;2023-04-24T15:39:23;9;8;5
57049;PMS7003;42935;50.966;16.992;2023-04-24T15:42:41;9;9;6
57049;PMS7003;42935;50.966;16.992;2023-04-24T15:46:07;16;12;8
57049;PMS7003;42935;50.966;16.992;2023-04-24T15:49:31;11;7;6
57049;PMS7003;42935;50.966;16.992;2023-04-24T15:52:49;12;11;8
57049;PMS7003;42935;50.966;16.992;2023-04-24T15:56:17;15;13;8
57049;PMS7003;42935;50.966;16.992;2023-04-24T15:59:33;10;9;6
57049;PMS7003;42935;50.966;16.992;2023-04-24T16:02:54;14;10;7
57049;PMS7003;42935;50.966;16.992;2023-04-24T16:06:14;13;11;8
57049;PMS7003;42935;50.966;16.992;2023-04-24T16:09:35;17;12;8
57049;PMS7003;42935;50.966;16.992;2023-04-24T16:12:58;13;11;8
57049;PMS7003;42935;50.966;16.992;2023-04-24T16:16:56;14;11;8
57049;PMS7003;42935;50.966;16.992;2023-04-24T16:20:12;12;10;8
57049;PMS7003;42935;50.966;16.992;2023-04-24T16:24:03;15;12;9
57049;PMS7003;42935;50.966;16.992;2023-04-24T16:27:19;12;11;8
57049;PMS7003;42935;50.966;16.992;2023-04-24T16:30:35;13;12;9
57049;PMS7003;42935;50.966;16.992;2023-04-24T16:33:58;13;10;7
57049;PMS7003;42935;50.966;16.992;2023-04-24T16:37:14;13;9;7
57049;PMS7003;42935;50.966;16.992;2023-04-24T16:40:39;14;14;11
57049;PMS7003;42935;50.966;16.992;2023-04-24T16:44:04;22;16;11
57049;PMS7003;42935;50.966;16.992;2023-04-24T16:47:22;18;13;11
57049;PMS7003;42935;50.966;16.992;2023-04-24T16:50:42;15;13;9
57049;PMS7003;42935;50.966;16.992;2023-04-24T16:54:00;10;9;7
57049;PMS7003;42935;50.966;16.992;2023-04-24T16:57:16;10;10;8
57049;PMS7003;42935;50.966;16.992;2023-04-24T17:00:32;14;13;9
57049;PMS7003;42935;50.966;16.992;2023-04-24T17:03:50;15;13;9
57049;PMS7003;42935;50.966;16.992;2023-04-24T17:07:09;14;12;8
57049;PMS7003;42935;50.966;16.992;2023-04-24T17:10:26;21;16;12
57049;PMS7003;42935;50.966;16.992;2023-04-24T17:13:47;18;16;11
57049;PMS7003;42935;50.966;16.992;2023-04-24T17:17:08;14;9;7
57049;PMS7003;42935;50.966;16.992;2023-04-24T17:20:33;10;9;7
57049;PMS7003;42935;50.966;16.992;2023-04-24T17:23:51;8;7;6
57049;PMS7003;42935;50.966;16.992;2023-04-24T17:27:07;8;7;5
57049;PMS7003;42935;50.966;16.992;2023-04-24T17:30:25;8;6;4
57049;PMS7003;42935;50.966;16.992;2023-04-24T17:33:46;10;9;6
57049;PMS7003;42935;50.966;16.992;2023-04-24T17:37:04;9;8;7
57049;PMS7003;42935;50.966;16.992;2023-04-24T17:40:22;16;14;10
57049;PMS7003;42935;50.966;16.992;2023-04-24T17:43:40;16;14;10
57049;PMS7003;42935;50.966;16.992;2023-04-24T17:47:01;16;14;11
57049;PMS7003;42935;50.966;16.992;2023-04-24T17:50:26;17;15;11
57049;PMS7003;42935;50.966;16.992;2023-04-24T17:53:46;20;16;9
57049;PMS7003;42935;50.966;16.992;2023-04-24T17:57:04;11;10;7
57049;PMS7003;42935;50.966;16.992;2023-04-24T18:00:22;13;11;8
57049;PMS7003;42935;50.966;16.992;2023-04-24T18:03:42;15;13;10
57049;PMS7003;42935;50.966;16.992;2023-04-24T18:07:03;20;15;11
57049;PMS7003;42935;50.966;16.992;2023-04-24T18:10:26;21;15;11
57049;PMS7003;42935;50.966;16.992;2023-04-24T18:13:46;20;16;10
57049;PMS7003;42935;50.966;16.992;2023-04-24T18:17:08;15;13;8
57049;PMS7003;42935;50.966;16.992;2023-04-24T18:20:28;14;12;8
57049;PMS7003;42935;50.966;16.992;2023-04-24T18:23:48;17;13;9
57049;PMS7003;42935;50.966;16.992;2023-04-24T18:27:06;17;11;9
57049;PMS7003;42935;50.966;16.992;2023-04-24T18:30:24;16;15;11
57049;PMS7003;42935;50.966;16.992;2023-04-24T18:33:48;21;16;11
57049;PMS7003;42935;50.966;16.992;2023-04-24T18:37:08;12;11;8
57049;PMS7003;42935;50.966;16.992;2023-04-24T18:40:29;13;11;8
57049;PMS7003;42935;50.966;16.992;2023-04-24T18:43:47;13;10;8
57049;PMS7003;42935;50.966;16.992;2023-04-24T18:47:11;15;12;9
57049;PMS7003;42935;50.966;16.992;2023-04-24T18:50:32;16;14;11
57049;PMS7003;42935;50.966;16.992;2023-04-24T18:53:53;16;14;10
57049;PMS7003;42935;50.966;16.992;2023-04-24T18:57:09;15;12;9
57049;PMS7003;42935;50.966;16.992;2023-04-24T19:00:27;14;12;9
57049;PMS7003;42935;50.966;16.992;2023-04-24T19:03:45;13;11;8
57049;PMS7003;42935;50.966;16.992;2023-04-24T19:07:03;16;12;9
57049;PMS7003;42935;50.966;16.992;2023-04-24T19:10:19;16;12;9
57049;PMS7003;42935;50.966;16.992;2023-04-24T19:13:44;14;12;8
57049;PMS7003;42935;50.966;16.992;2023-04-24T19:17:02;13;10;8
57049;PMS7003;42935;50.966;16.992;2023-04-24T19:20:24;9;8;5
57049;PMS7003;42935;50.966;16.992;2023-04-24T19:23:43;9;7;6
57049;PMS7003;42935;50.966;16.992;2023-04-24T19:27:07;10;8;6
57049;PMS7003;42935;50.966;16.992;2023-04-24T19:30:28;8;7;4
57049;PMS7003;42935;50.966;16.992;2023-04-24T19:33:50;8;8;5
57049;PMS7003;42935;50.966;16.992;2023-04-24T19:37:07;9;8;6
57049;PMS7003;42935;50.966;16.992;2023-04-24T19:40:23;7;6;5
57049;PMS7003;42935;50.966;16.992;2023-04-24T19:43:41;8;6;5
57049;PMS7003;42935;50.966;16.992;2023-04-24T19:47:05;8;7;5
57049;PMS7003;42935;50.966;16.992;2023-04-24T19:50:25;7;7;4
57049;PMS7003;42935;50.966;16.992;2023-04-24T19:53:45;8;7;5
57049;PMS7003;42935;50.966;16.992;2023-04-24T19:57:04;9;6;5
57049;PMS7003;42935;50.966;16.992;2023-04-24T20:00:21;10;6;5
57049;PMS7003;42935;50.966;16.992;2023-04-24T20:03:39;10;8;5
57049;PMS7003;42935;50.966;16.992;2023-04-24T20:06:55;11;8;7
57049;PMS7003;42935;50.966;16.992;2023-04-24T20:10:19;18;17;11
57049;PMS7003;42935;50.966;16.992;2023-04-24T20:13:39;11;9;7
57049;PMS7003;42935;50.966;16.992;2023-04-24T20:16:57;9;8;6
57049;PMS7003;42935;50.966;16.992;2023-04-24T20:20:17;13;11;7
57049;PMS7003;42935;50.966;16.992;2023-04-24T20:23:33;15;11;8
57049;PMS7003;42935;50.966;16.992;2023-04-24T20:26:51;14;12;9
57049;PMS7003;42935;50.966;16.992;2023-04-24T20:30:14;16;14;10
57049;PMS7003;42935;50.966;16.992;2023-04-24T20:33:42;17;14;10
57049;PMS7003;42935;50.966;16.992;2023-04-24T20:37:03;18;16;12
57049;PMS7003;42935;50.966;16.992;2023-04-24T20:40:22;19;14;11
57049;PMS7003;42935;50.966;16.992;2023-04-24T20:43:39;19;16;10
57049;PMS7003;42935;50.966;16.992;2023-04-24T20:46:57;19;17;12
57049;PMS7003;42935;50.966;16.992;2023-04-24T20:50:17;17;14;10
57049;PMS7003;42935;50.966;16.992;2023-04-24T20:53:35;14;13;10
57049;PMS7003;42935;50.966;16.992;2023-04-24T20:56:55;17;15;12
57049;PMS7003;42935;50.966;16.992;2023-04-24T21:00:15;19;15;10
57049;PMS7003;42935;50.966;16.992;2023-04-24T21:03:35;19;18;12
57049;PMS7003;42935;50.966;16.992;2023-04-24T21:06:57;22;18;11
57049;PMS7003;42935;50.966;16.992;2023-04-24T21:10:18;25;19;14
57049;PMS7003;42935;50.966;16.992;2023-04-24T21:13:38;20;18;13
57049;PMS7003;42935;50.966;16.992;2023-04-24T21:16:57;22;18;11
57049;PMS7003;42935;50.966;16.992;2023-04-24T21:20:23;23;20;12
57049;PMS7003;42935;50.966;16.992;2023-04-24T21:23:39;19;16;12
57049;PMS7003;42935;50.966;16.992;2023-04-24T21:26:59;16;14;11
57049;PMS7003;42935;50.966;16.992;2023-04-24T21:30:20;12;12;9
57049;PMS7003;42935;50.966;16.992;2023-04-24T21:33:44;14;10;8
57049;PMS7003;42935;50.966;16.992;2023-04-24T21:37:04;13;11;8
57049;PMS7003;42935;50.966;16.992;2023-04-24T21:40:25;9;9;7